Time;durP1;ratioP1;P1;durP2;ratioP2;P2;SDS_P1;SDS_P2;PMS_P1;PMS_P2;Temp;Humidity;BMP_temperature;BMP_pressure;BME280_temperature;BME280_humidity;BME280_pressure;Samples;Min_cycle;Max_cycle;Signal;HPM_P1;HPM_P2
2022/12/13 00:00:05;;;;;;;0.10;0.10;;;-3275.50;84.50;;;;;;5052513;28;20523;-67
2022/12/13 00:02:30;;;;;;;0.10;0.10;;;-3275.50;84.60;;;;;;5052017;28;20051;-67
2022/12/13 00:04:56;;;;;;;0.00;0.00;;;-3275.50;84.70;;;;;;5052554;28;20045;-67
2022/12/13 00:07:22;;;;;;;0.10;0.10;;;-3275.50;84.90;;;;;;5052559;28;20400;-67
2022/12/13 00:09:47;;;;;;;0.10;0.10;;;-3275.60;85.00;;;;;;5052286;28;20073;-67
2022/12/13 00:12:13;;;;;;;0.10;0.10;;;-3275.60;85.10;;;;;;5052523;28;20041;-67
2022/12/13 00:14:38;;;;;;;0.00;0.00;;;-3275.60;85.10;;;;;;5053504;28;20080;-67
2022/12/13 00:17:05;;;;;;;0.10;0.10;;;-3275.60;85.10;;;;;;5052891;28;20053;-67
2022/12/13 00:19:30;;;;;;;0.57;0.57;;;-3275.60;85.10;;;;;;5051414;28;20090;-67
2022/12/13 00:21:56;;;;;;;0.10;0.10;;;-3275.60;85.10;;;;;;5051884;28;20091;-67
2022/12/13 00:24:22;;;;;;;0.00;0.00;;;-3275.60;85.10;;;;;;5052557;28;20397;-67
2022/12/13 00:26:47;;;;;;;0.20;0.20;;;-3275.60;85.10;;;;;;5052589;28;20037;-66
2022/12/13 00:29:13;;;;;;;0.00;0.00;;;-3275.60;85.10;;;;;;5052761;28;20560;-66
2022/12/13 00:31:38;;;;;;;0.10;0.10;;;-3275.60;85.10;;;;;;5051330;28;20051;-66
2022/12/13 00:34:04;;;;;;;0.10;0.10;;;-3275.50;85.10;;;;;;5052850;28;20067;-66
2022/12/13 00:36:30;;;;;;;0.10;0.10;;;-3275.50;85.10;;;;;;5052399;28;20037;-67
2022/12/13 00:39:01;;;;;;;0.10;0.10;;;-3275.60;85.10;;;;;;5053027;28;20120;-67
2022/12/13 00:41:34;;;;;;;0.68;0.63;;;-3275.60;85.10;;;;;;5052955;28;20040;-66
2022/12/13 00:44:01;;;;;;;0.10;0.10;;;-3275.60;85.10;;;;;;5052955;28;20032;-67
2022/12/13 00:46:28;;;;;;;0.00;0.00;;;-3275.60;85.10;;;;;;5051986;28;20048;-67
2022/12/13 00:48:56;;;;;;;0.00;0.00;;;-3275.60;85.10;;;;;;5052753;28;20048;-66
2022/12/13 00:51:23;;;;;;;0.10;0.10;;;-3275.60;85.00;;;;;;5051885;28;20037;-67
2022/12/13 00:53:49;;;;;;;0.00;0.00;;;-3275.60;84.90;;;;;;5051660;28;20134;-66
2022/12/13 00:56:20;;;;;;;0.20;0.20;;;-3275.60;84.90;;;;;;5050963;28;20124;-66
2022/12/13 00:58:46;;;;;;;0.00;0.00;;;-3275.60;84.80;;;;;;5033839;28;20052;-66
2022/12/13 01:01:13;;;;;;;0.10;0.10;;;-3275.60;84.80;;;;;;5050730;28;20084;-66
2022/12/13 01:03:40;;;;;;;0.00;0.00;;;-3275.70;84.80;;;;;;5051434;28;20106;-67
2022/12/13 01:06:17;;;;;;;0.00;0.00;;;-3275.70;84.90;;;;;;5031920;28;20048;-66
2022/12/13 01:08:43;;;;;;;0.10;0.10;;;-3275.60;84.80;;;;;;5029822;28;20042;-67
2022/12/13 01:11:10;;;;;;;0.00;0.00;;;-3275.70;84.80;;;;;;5039178;28;20489;-66
2022/12/13 01:13:36;;;;;;;0.10;0.10;;;-3275.70;84.80;;;;;;5049886;28;20124;-66
2022/12/13 01:16:04;;;;;;;0.00;0.00;;;-3275.70;84.80;;;;;;5039108;28;20107;-66
2022/12/13 01:18:31;;;;;;;0.05;0.05;;;-3275.70;84.70;;;;;;5050746;28;20159;-66
2022/12/13 01:21:05;;;;;;;0.45;0.45;;;-3275.60;84.70;;;;;;5049873;28;20053;-66
2022/12/13 01:23:31;;;;;;;0.00;0.00;;;-3275.60;84.60;;;;;;5049614;28;20661;-67
2022/12/13 01:25:57;;;;;;;0.00;0.00;;;-3275.60;84.60;;;;;;5050766;28;20390;-66
2022/12/13 01:28:23;;;;;;;0.15;0.15;;;-3275.60;84.60;;;;;;5050926;28;20519;-66
2022/12/13 01:31:00;;;;;;;0.08;0.08;;;-3275.60;84.60;;;;;;5046652;28;20033;-66
2022/12/13 01:33:26;;;;;;;0.00;0.00;;;-3275.60;84.60;;;;;;5049293;28;20524;-66
2022/12/13 01:35:52;;;;;;;0.00;0.00;;;-3275.60;84.60;;;;;;5050051;28;20876;-66
2022/12/13 01:38:19;;;;;;;0.10;0.10;;;-3275.60;84.60;;;;;;5051063;28;20071;-66
2022/12/13 01:40:56;;;;;;;0.03;0.03;;;-3275.60;84.60;;;;;;5049877;28;20112;-66
2022/12/13 01:43:43;;;;;;;0.00;0.00;;;-3275.50;84.60;;;;;;5030888;28;20090;-66
2022/12/13 01:46:10;;;;;;;0.10;0.10;;;-3275.50;84.60;;;;;;5024977;28;20505;-66
2022/12/13 01:48:43;;;;;;;0.15;0.15;;;-3275.50;84.70;;;;;;5049153;28;20045;-66
2022/12/13 01:51:13;;;;;;;0.57;0.57;;;-3275.50;84.80;;;;;;5039909;28;20574;-66
2022/12/13 01:53:40;;;;;;;0.25;0.25;;;-3275.50;84.90;;;;;;5050504;28;20049;-66
2022/12/13 01:56:25;;;;;;;0.10;0.10;;;-3275.50;85.00;;;;;;5048592;28;20554;-66
2022/12/13 01:58:54;;;;;;;0.10;0.10;;;-3275.40;84.90;;;;;;5050560;28;20772;-66
2022/12/13 02:01:21;;;;;;;0.00;0.00;;;-3275.50;85.00;;;;;;5050168;28;20049;-66
2022/12/13 02:03:46;;;;;;;0.00;0.00;;;-3275.40;85.00;;;;;;5050555;28;20110;-66
2022/12/13 02:06:18;;;;;;;0.03;0.03;;;-3275.50;85.00;;;;;;5048776;28;20828;-66
2022/12/13 02:08:45;;;;;;;0.03;0.03;;;-3275.50;84.90;;;;;;5050022;28;20090;-66
2022/12/13 02:11:12;;;;;;;0.10;0.10;;;-3275.50;84.90;;;;;;5050288;28;20053;-67
2022/12/13 02:13:38;;;;;;;0.30;0.30;;;-3275.40;84.90;;;;;;5049759;28;20068;-67
2022/12/13 02:16:28;;;;;;;0.10;0.10;;;-3275.40;84.90;;;;;;5049542;28;20087;-66
2022/12/13 02:19:17;;;;;;;0.00;0.00;;;-3275.50;84.90;;;;;;5032347;28;20511;-67
2022/12/13 02:21:51;;;;;;;0.00;0.00;;;-3275.50;84.90;;;;;;5049123;28;20111;-66
2022/12/13 02:24:41;;;;;;;0.08;0.08;;;-3275.40;84.80;;;;;;5048364;28;20056;-66
2022/12/13 02:27:16;;;;;;;0.10;0.10;;;-3275.40;84.80;;;;;;5048919;28;20049;-66
2022/12/13 02:30:09;;;;;;;0.00;0.00;;;-3275.40;84.70;;;;;;5049560;28;20059;-67
2022/12/13 02:32:53;;;;;;;0.00;0.00;;;-3275.40;84.80;;;;;;5048183;28;20132;-66
2022/12/13 02:35:38;;;;;;;0.00;0.00;;;-3275.40;84.90;;;;;;5049362;28;20045;-66
2022/12/13 02:38:22;;;;;;;0.10;0.10;;;-3275.40;85.00;;;;;;5048558;28;20536;-66
2022/12/13 02:41:12;;;;;;;0.10;0.10;;;-3275.50;85.10;;;;;;5048319;28;20041;-66
2022/12/13 02:43:56;;;;;;;0.10;0.10;;;-3275.50;85.10;;;;;;5049476;28;20079;-66
2022/12/13 02:46:25;;;;;;;0.10;0.10;;;-3275.40;85.10;;;;;;5049721;28;20041;-66
2022/12/13 02:48:55;;;;;;;0.85;0.85;;;-3275.40;85.10;;;;;;5048962;28;20044;-66
2022/12/13 02:51:22;;;;;;;0.10;0.10;;;-3275.40;84.90;;;;;;5049246;28;20033;-66
2022/12/13 02:53:48;;;;;;;0.10;0.10;;;-3275.40;85.10;;;;;;5049085;28;20033;-66
2022/12/13 02:56:14;;;;;;;0.10;0.10;;;-3275.40;85.20;;;;;;5048834;28;20048;-66
2022/12/13 02:58:50;;;;;;;0.10;0.10;;;-3275.40;85.20;;;;;;5048582;28;20048;-66
2022/12/13 03:01:48;;;;;;;0.00;0.00;;;-3275.40;85.50;;;;;;5049393;28;20087;-65
2022/12/13 03:08:24;;;;;;;0.90;0.90;;;-3275.40;85.70;;;;;;5049528;28;20057;-66
2022/12/13 03:11:11;;;;;;;0.10;0.10;;;-3275.40;85.80;;;;;;4967882;28;20491;-66
2022/12/13 03:13:46;;;;;;;0.10;0.10;;;-3275.50;85.90;;;;;;5027953;28;20064;-66
2022/12/13 03:16:20;;;;;;;0.35;0.35;;;-3275.50;86.00;;;;;;5048773;28;20049;-66
2022/12/13 03:18:47;;;;;;;0.13;0.13;;;-3275.50;86.00;;;;;;5048808;28;20052;-66
2022/12/13 03:21:13;;;;;;;0.00;0.00;;;-3275.50;85.90;;;;;;5047795;28;20138;-66
2022/12/13 03:23:39;;;;;;;0.08;0.08;;;-3275.50;85.90;;;;;;5049025;28;20056;-66
2022/12/13 03:26:14;;;;;;;0.00;0.00;;;-3275.60;85.90;;;;;;5047683;28;20119;-66
2022/12/13 03:28:40;;;;;;;0.05;0.05;;;-3275.60;85.90;;;;;;5048823;28;20041;-66
2022/12/13 03:31:06;;;;;;;0.10;0.10;;;-3275.60;85.70;;;;;;5048069;28;20041;-66
2022/12/13 03:33:32;;;;;;;0.10;0.10;;;-3275.50;85.60;;;;;;5048404;28;20087;-66
2022/12/13 03:35:59;;;;;;;0.10;0.10;;;-3275.50;85.40;;;;;;5046860;28;20037;-66
2022/12/13 03:38:25;;;;;;;1.92;1.80;;;-3275.50;85.20;;;;;;5048675;28;20053;-66
2022/12/13 03:40:59;;;;;;;0.10;0.10;;;-3275.40;85.10;;;;;;5047862;28;20417;-66
2022/12/13 03:43:25;;;;;;;0.10;0.10;;;-3275.40;85.00;;;;;;5048677;28;20076;-67
2022/12/13 03:45:52;;;;;;;0.17;0.17;;;-3275.30;84.90;;;;;;5048177;28;20083;-65
2022/12/13 03:48:17;;;;;;;0.10;0.10;;;-3275.30;84.90;;;;;;5052092;28;20045;-66
2022/12/13 03:50:43;;;;;;;0.00;0.00;;;-3275.30;84.90;;;;;;5046396;28;20051;-65
2022/12/13 03:53:09;;;;;;;0.00;0.00;;;-3275.30;84.70;;;;;;5048540;28;20493;-65
2022/12/13 03:55:34;;;;;;;0.00;0.00;;;-3275.30;84.60;;;;;;5046936;28;20041;-65
2022/12/13 03:58:00;;;;;;;0.13;0.13;;;-3275.30;84.40;;;;;;5048302;28;20049;-66
2022/12/13 04:00:26;;;;;;;0.10;0.10;;;-3275.20;84.20;;;;;;5047898;28;20040;-65
2022/12/13 04:02:51;;;;;;;0.10;0.10;;;-3275.20;84.20;;;;;;5048500;28;20098;-65
2022/12/13 04:05:17;;;;;;;0.00;0.00;;;-3275.20;84.20;;;;;;5048192;28;20044;-65
2022/12/13 04:07:43;;;;;;;0.00;0.00;;;-3275.20;84.10;;;;;;5046462;28;20500;-66
2022/12/13 04:10:09;;;;;;;0.47;0.47;;;-3275.10;84.10;;;;;;5048058;28;20033;-66
2022/12/13 04:15:18;;;;;;;0.10;0.10;;;-3275.00;84.10;;;;;;5048330;28;20045;-66
2022/12/13 04:17:44;;;;;;;0.00;0.00;;;-3274.90;84.00;;;;;;5048235;28;20469;-66
2022/12/13 04:20:10;;;;;;;0.00;0.00;;;-3274.90;83.90;;;;;;5047233;28;20553;-66
2022/12/13 04:22:36;;;;;;;0.47;0.47;;;-3274.90;83.80;;;;;;5047894;28;20064;-67
2022/12/13 04:25:03;;;;;;;0.00;0.00;;;-3274.90;83.80;;;;;;5047306;28;20049;-66
2022/12/13 04:27:28;;;;;;;0.47;0.38;;;-3274.90;83.70;;;;;;5047962;28;20764;-66
2022/12/13 04:29:54;;;;;;;0.00;0.00;;;-3274.90;83.60;;;;;;5047952;28;20155;-65
2022/12/13 04:32:20;;;;;;;0.10;0.10;;;-3274.90;83.60;;;;;;5047874;28;20051;-66
2022/12/13 04:34:45;;;;;;;0.10;0.10;;;-3274.90;83.50;;;;;;5046710;28;20044;-66
2022/12/13 04:37:11;;;;;;;0.10;0.10;;;-3274.90;83.40;;;;;;5047896;28;20049;-65
2022/12/13 04:39:36;;;;;;;0.05;0.05;;;-3274.90;83.40;;;;;;5047311;28;20128;-65
2022/12/13 04:42:03;;;;;;;0.00;0.00;;;-3274.90;83.40;;;;;;5047055;28;20103;-66
2022/12/13 04:44:29;;;;;;;1.20;1.20;;;-3274.90;83.40;;;;;;5050513;28;20076;-65
2022/12/13 04:46:54;;;;;;;0.00;0.00;;;-3274.90;83.50;;;;;;5050479;28;20083;-65
2022/12/13 04:49:20;;;;;;;0.10;0.10;;;-3274.90;83.50;;;;;;5033837;28;20041;-66
2022/12/13 04:51:46;;;;;;;0.10;0.10;;;-3274.90;83.50;;;;;;5051787;28;20128;-66
2022/12/13 04:54:11;;;;;;;0.10;0.10;;;-3274.90;83.50;;;;;;5051692;28;20051;-66
2022/12/13 04:56:37;;;;;;;0.00;0.00;;;-3274.80;83.40;;;;;;5051074;28;20123;-66
2022/12/13 04:59:03;;;;;;;0.00;0.00;;;-3274.90;83.40;;;;;;5051461;28;20029;-66
2022/12/13 05:01:28;;;;;;;0.10;0.10;;;-3274.80;83.40;;;;;;5051255;28;20500;-66
2022/12/13 05:03:54;;;;;;;0.10;0.10;;;-3274.80;83.40;;;;;;5051557;28;20051;-66
2022/12/13 05:06:19;;;;;;;0.10;0.10;;;-3274.90;83.50;;;;;;5050632;28;20048;-67
2022/12/13 05:08:45;;;;;;;0.00;0.00;;;-3274.80;83.50;;;;;;5051262;28;20454;-67
2022/12/13 05:11:11;;;;;;;0.10;0.10;;;-3274.80;83.60;;;;;;5051426;28;20052;-67
2022/12/13 05:13:37;;;;;;;0.10;0.10;;;-3274.90;83.70;;;;;;5050344;28;20451;-66
2022/12/13 05:16:05;;;;;;;1.85;0.98;;;-3274.90;83.70;;;;;;5050250;28;20051;-66
2022/12/13 05:18:31;;;;;;;0.10;0.10;;;-3275.00;83.80;;;;;;5050654;28;20041;-66
2022/12/13 05:21:02;;;;;;;0.00;0.00;;;-3275.00;83.90;;;;;;5052528;28;20045;-67
2022/12/13 05:23:27;;;;;;;0.00;0.00;;;-3275.00;84.00;;;;;;5049729;28;20501;-66
2022/12/13 05:25:53;;;;;;;0.10;0.10;;;-3275.00;84.00;;;;;;5049978;28;20037;-66
2022/12/13 05:28:19;;;;;;;0.10;0.10;;;-3275.10;84.10;;;;;;5050718;28;20051;-67
2022/12/13 05:30:44;;;;;;;0.10;0.10;;;-3275.10;84.00;;;;;;5050615;28;20536;-67
2022/12/13 05:33:10;;;;;;;0.75;0.75;;;-3275.10;84.10;;;;;;5050960;28;20194;-67
2022/12/13 05:35:36;;;;;;;0.00;0.00;;;-3275.10;84.10;;;;;;5050491;28;20147;-67
2022/12/13 05:38:02;;;;;;;0.10;0.10;;;-3275.10;84.20;;;;;;5049432;28;20560;-66
2022/12/13 05:40:30;;;;;;;0.08;0.08;;;-3275.10;84.20;;;;;;5048970;28;20045;-67
2022/12/13 05:42:57;;;;;;;0.10;0.10;;;-3275.00;84.30;;;;;;5048985;28;20106;-66
2022/12/13 05:45:22;;;;;;;0.20;0.20;;;-3275.10;84.40;;;;;;5050294;28;20076;-65
2022/12/13 05:47:48;;;;;;;0.10;0.10;;;-3275.10;84.40;;;;;;5049525;28;20080;-66
2022/12/13 05:50:15;;;;;;;0.10;0.10;;;-3275.10;84.50;;;;;;5049679;28;20040;-66
2022/12/13 05:52:44;;;;;;;0.10;0.10;;;-3275.10;84.60;;;;;;5050134;28;20048;-66
2022/12/13 05:55:11;;;;;;;0.08;0.08;;;-3275.10;84.70;;;;;;5050570;28;20045;-66
2022/12/13 05:57:37;;;;;;;0.00;0.00;;;-3275.20;84.80;;;;;;5050272;28;20041;-66
2022/12/13 06:00:05;;;;;;;0.10;0.10;;;-3275.20;84.90;;;;;;5049934;28;20041;-66
2022/12/13 06:02:31;;;;;;;0.00;0.00;;;-3275.20;85.00;;;;;;5050431;28;20060;-67
2022/12/13 06:04:56;;;;;;;0.10;0.10;;;-3275.20;85.10;;;;;;5050285;28;20076;-66
2022/12/13 06:07:22;;;;;;;0.05;0.05;;;-3275.20;85.10;;;;;;5049587;28;20048;-66
2022/12/13 06:09:48;;;;;;;0.10;0.10;;;-3275.20;85.10;;;;;;5049037;28;20103;-66
2022/12/13 06:12:15;;;;;;;0.05;0.05;;;-3275.20;85.00;;;;;;5047979;28;20069;-66
2022/12/13 06:14:41;;;;;;;0.10;0.10;;;-3275.20;85.10;;;;;;5049849;28;20092;-66
2022/12/13 06:17:06;;;;;;;0.10;0.10;;;-3275.20;85.00;;;;;;5049827;28;20047;-67
2022/12/13 06:19:32;;;;;;;0.05;0.05;;;-3275.20;85.00;;;;;;5049586;28;20045;-66
2022/12/13 06:21:57;;;;;;;0.00;0.00;;;-3275.10;85.00;;;;;;5049395;28;20049;-66
2022/12/13 06:24:23;;;;;;;5.05;3.70;;;-3275.10;85.00;;;;;;5049489;28;20084;-69
2022/12/13 06:26:49;;;;;;;1.00;0.70;;;-3275.10;85.00;;;;;;5049708;28;20041;-67
2022/12/13 06:29:17;;;;;;;0.00;0.00;;;-3275.20;85.00;;;;;;5048861;28;20127;-66
2022/12/13 06:31:43;;;;;;;0.10;0.10;;;-3275.20;85.00;;;;;;5049715;28;20041;-66
2022/12/13 06:34:08;;;;;;;0.00;0.00;;;-3275.20;84.90;;;;;;5048172;28;20386;-67
2022/12/13 06:36:34;;;;;;;0.05;0.05;;;-3275.20;84.90;;;;;;5048994;28;20041;-66
2022/12/13 06:39:04;;;;;;;0.00;0.00;;;-3275.20;84.80;;;;;;5048547;28;20052;-66
2022/12/13 06:41:30;;;;;;;0.00;0.00;;;-3275.20;84.80;;;;;;5051646;28;20076;-66
2022/12/13 06:43:57;;;;;;;0.00;0.00;;;-3275.20;84.70;;;;;;5048946;28;20183;-66
2022/12/13 06:46:22;;;;;;;0.10;0.10;;;-3275.20;84.70;;;;;;5049352;28;20481;-66
2022/12/13 06:48:48;;;;;;;0.00;0.00;;;-3275.20;84.50;;;;;;5048632;28;20120;-66
2022/12/13 06:51:14;;;;;;;0.00;0.00;;;-3275.20;84.50;;;;;;5046735;28;20087;-66
2022/12/13 06:53:40;;;;;;;0.00;0.00;;;-3275.10;84.40;;;;;;5049497;28;20041;-67
2022/12/13 06:56:08;;;;;;;0.20;0.20;;;-3275.10;84.20;;;;;;5049258;28;20106;-66
2022/12/13 06:58:35;;;;;;;0.20;0.20;;;-3275.00;84.20;;;;;;5051326;28;20071;-66
2022/12/13 07:01:01;;;;;;;0.10;0.10;;;-3275.10;84.20;;;;;;5049674;28;20809;-66
2022/12/13 07:03:28;;;;;;;0.10;0.10;;;-3275.10;84.30;;;;;;5048557;28;20049;-66
2022/12/13 07:05:54;;;;;;;0.10;0.10;;;-3275.10;84.30;;;;;;5048262;28;20095;-66
2022/12/13 07:08:19;;;;;;;0.10;0.10;;;-3275.10;84.20;;;;;;5048152;28;20056;-67
2022/12/13 07:10:45;;;;;;;0.00;0.00;;;-3275.10;84.20;;;;;;5049002;28;20041;-66
2022/12/13 07:13:11;;;;;;;0.20;0.20;;;-3275.10;84.10;;;;;;5048394;28;20124;-64
2022/12/13 07:15:37;;;;;;;0.00;0.00;;;-3275.00;84.10;;;;;;5045577;28;20116;-65
2022/12/13 07:18:03;;;;;;;0.10;0.10;;;-3275.00;84.10;;;;;;5047115;28;20036;-65
2022/12/13 07:20:28;;;;;;;0.10;0.10;;;-3275.00;84.30;;;;;;5063028;28;20461;-63
2022/12/13 07:22:55;;;;;;;0.00;0.00;;;-3275.10;84.20;;;;;;5026453;28;20041;-65
2022/12/13 07:25:21;;;;;;;0.10;0.10;;;-3275.10;84.20;;;;;;5045587;28;20110;-66
2022/12/13 07:27:47;;;;;;;0.08;0.08;;;-3275.20;84.30;;;;;;5046250;28;20366;-66
2022/12/13 07:30:14;;;;;;;0.10;0.10;;;-3275.20;84.30;;;;;;5048346;28;20067;-66
2022/12/13 07:32:39;;;;;;;0.10;0.10;;;-3275.10;84.20;;;;;;5039994;28;20041;-66
2022/12/13 07:35:05;;;;;;;0.00;0.00;;;-3275.10;84.20;;;;;;5046770;28;20409;-64
2022/12/13 07:37:31;;;;;;;0.10;0.10;;;-3275.30;84.80;;;;;;5045234;28;20045;-65
2022/12/13 07:39:58;;;;;;;0.10;0.10;;;-3275.30;84.80;;;;;;5044741;28;20037;-64
2022/12/13 07:42:23;;;;;;;0.10;0.10;;;-3275.30;84.60;;;;;;5038295;28;20443;-61
2022/12/13 07:44:49;;;;;;;0.10;0.10;;;-3275.30;84.40;;;;;;5053987;28;20047;-64
2022/12/13 07:47:14;;;;;;;0.00;0.00;;;-3275.20;84.30;;;;;;5054020;28;20378;-63
2022/12/13 07:49:40;;;;;;;0.00;0.00;;;-3275.20;84.30;;;;;;5059883;28;20045;-62
2022/12/13 07:52:10;;;;;;;0.10;0.10;;;-3275.20;84.30;;;;;;5059475;28;20057;-63
2022/12/13 07:54:35;;;;;;;0.00;0.00;;;-3275.20;84.10;;;;;;5058635;28;20400;-63
2022/12/13 07:57:01;;;;;;;0.10;0.10;;;-3275.20;84.10;;;;;;5041462;28;20053;-63
2022/12/13 07:59:26;;;;;;;0.10;0.10;;;-3275.20;84.10;;;;;;5041217;28;20447;-64
2022/12/13 08:01:52;;;;;;;0.00;0.00;;;-3275.20;84.10;;;;;;5031578;28;20053;-64
2022/12/13 08:04:19;;;;;;;0.00;0.00;;;-3275.20;84.10;;;;;;5045081;28;20044;-64
2022/12/13 08:06:44;;;;;;;0.10;0.10;;;-3275.20;84.10;;;;;;5048783;28;20041;-64
2022/12/13 08:09:10;;;;;;;0.10;0.10;;;-3275.20;84.10;;;;;;5054101;28;20041;-64
2022/12/13 08:11:35;;;;;;;0.00;0.00;;;-3275.20;84.10;;;;;;5048343;28;20033;-65
2022/12/13 08:14:01;;;;;;;0.10;0.10;;;-3275.10;84.00;;;;;;5037702;28;20579;-63
2022/12/13 08:16:27;;;;;;;0.08;0.08;;;-3275.10;84.00;;;;;;5029303;28;20048;-63
2022/12/13 08:18:52;;;;;;;0.55;0.55;;;-3275.10;84.20;;;;;;5019470;28;20044;-63
2022/12/13 08:21:18;;;;;;;0.15;0.15;;;-3275.00;84.10;;;;;;5033177;28;20470;-63
2022/12/13 08:23:44;;;;;;;0.10;0.10;;;-3274.90;84.20;;;;;;5040465;28;20440;-64
2022/12/13 08:26:09;;;;;;;0.10;0.10;;;-3274.80;84.30;;;;;;5031103;28;20403;-64
2022/12/13 08:28:36;;;;;;;0.98;0.98;;;-3274.80;84.40;;;;;;5040523;28;20041;-64
2022/12/13 08:31:10;;;;;;;5.25;1.95;;;-3274.80;84.50;;;;;;5037567;28;20060;-64
2022/12/13 08:33:36;;;;;;;1.30;1.08;;;-3274.80;84.60;;;;;;5043271;28;20084;-64
2022/12/13 08:36:14;;;;;;;0.00;0.00;;;-3274.80;84.80;;;;;;5043015;28;20132;-64
2022/12/13 08:38:41;;;;;;;0.10;0.10;;;-3274.80;84.90;;;;;;5045740;28;20543;-64
2022/12/13 08:41:07;;;;;;;0.30;0.30;;;-3274.90;85.10;;;;;;5047008;28;20037;-64
2022/12/13 08:43:33;;;;;;;0.10;0.10;;;-3275.00;85.20;;;;;;5033190;28;20053;-64
2022/12/13 08:46:00;;;;;;;0.10;0.10;;;-3275.10;85.20;;;;;;5029063;28;20049;-63
2022/12/13 08:48:25;;;;;;;0.10;0.10;;;-3275.10;85.10;;;;;;5044651;28;20044;-64
2022/12/13 08:50:51;;;;;;;0.10;0.10;;;-3275.10;85.10;;;;;;5032170;28;20068;-64
2022/12/13 08:53:17;;;;;;;0.10;0.10;;;-3275.20;85.10;;;;;;5042776;28;20059;-64
2022/12/13 08:55:42;;;;;;;0.00;0.00;;;-3275.20;85.10;;;;;;5041363;28;20147;-64
2022/12/13 08:58:08;;;;;;;1.40;1.30;;;-3275.30;85.10;;;;;;5043525;28;20484;-65
2022/12/13 09:00:35;;;;;;;0.00;0.00;;;-3275.20;85.00;;;;;;5058488;28;20029;-64
2022/12/13 09:03:04;;;;;;;0.15;0.15;;;-3275.30;85.00;;;;;;5056907;28;20045;-64
2022/12/13 09:05:32;;;;;;;0.10;0.10;;;-3275.30;85.00;;;;;;5048543;28;20159;-65
2022/12/13 09:07:58;;;;;;;0.10;0.10;;;-3275.30;85.10;;;;;;5031966;28;20087;-64
2022/12/13 09:10:24;;;;;;;0.10;0.10;;;-3275.40;85.10;;;;;;5056270;28;20051;-64
2022/12/13 09:12:50;;;;;;;0.00;0.00;;;-3275.40;85.20;;;;;;5057832;28;20029;-65
2022/12/13 09:15:16;;;;;;;0.15;0.15;;;-3275.40;85.20;;;;;;5056572;28;20064;-65
2022/12/13 09:17:42;;;;;;;0.10;0.10;;;-3275.50;85.30;;;;;;5031877;28;20048;-64
2022/12/13 09:20:10;;;;;;;0.00;0.00;;;-3275.60;85.30;;;;;;5049449;28;20087;-64
2022/12/13 09:22:36;;;;;;;1.45;0.80;;;-3275.60;85.30;;;;;;5047389;28;20096;-64
2022/12/13 09:25:03;;;;;;;0.10;0.10;;;-3275.60;85.40;;;;;;5031844;28;20049;-64
2022/12/13 09:27:30;;;;;;;0.00;0.00;;;-3275.70;85.40;;;;;;5055263;28;20077;-65
2022/12/13 09:29:56;;;;;;;0.00;0.00;;;-3275.70;85.40;;;;;;5052819;28;20032;-64
2022/12/13 09:32:23;;;;;;;0.00;0.00;;;-3275.80;85.40;;;;;;5054178;28;20051;-64
2022/12/13 09:34:48;;;;;;;0.00;0.00;;;-3275.80;85.30;;;;;;5057186;28;20067;-64
2022/12/13 09:37:14;;;;;;;0.10;0.10;;;-3275.80;85.30;;;;;;5055953;28;20481;-65
2022/12/13 09:39:39;;;;;;;0.50;0.50;;;-3275.90;85.40;;;;;;5057357;28;20055;-65
2022/12/13 09:42:15;;;;;;;0.10;0.10;;;-3275.90;85.40;;;;;;5031224;28;20546;-63
2022/12/13 09:44:49;;;;;;;0.10;0.10;;;-3275.90;85.40;;;;;;5056915;28;20064;-65
2022/12/13 09:47:30;;;;;;;0.00;0.00;;;-3275.90;85.50;;;;;;5056073;28;20036;-64
2022/12/13 09:49:58;;;;;;;0.00;0.00;;;-3276.00;85.60;;;;;;5056325;28;20101;-65
2022/12/13 09:52:24;;;;;;;0.00;0.00;;;-3276.00;85.60;;;;;;5056552;28;20071;-64
2022/12/13 09:54:55;;;;;;;0.05;0.05;;;-3276.10;85.70;;;;;;5058012;28;20156;-65
2022/12/13 09:57:27;;;;;;;0.00;0.00;;;-3276.10;85.80;;;;;;5055768;28;20044;-64
2022/12/13 09:59:53;;;;;;;;;;;-3276.20;85.80;;;;;;5047834;28;20397;-64
2022/12/13 10:02:26;;;;;;;0.10;0.10;;;-3276.20;85.90;;;;;;5047898;28;20388;-64
2022/12/13 10:04:52;;;;;;;;;;;-3276.30;85.90;;;;;;5058242;28;20124;-65
2022/12/13 10:07:23;;;;;;;0.00;0.00;;;-3276.30;85.90;;;;;;5057204;28;19929;-65
2022/12/13 10:09:54;;;;;;;0.00;0.00;;;-3276.50;86.00;;;;;;5055332;28;20041;-64
2022/12/13 10:12:20;;;;;;;0.00;0.00;;;-3276.50;86.00;;;;;;5056198;28;20070;-64
2022/12/13 10:14:53;;;;;;;0.00;0.00;;;-3276.50;86.10;;;;;;5047307;28;20036;-65
2022/12/13 10:17:21;;;;;;;0.38;0.38;;;-3276.50;86.00;;;;;;5056871;28;20053;-64
2022/12/13 10:19:51;;;;;;;0.00;0.00;;;-3276.60;86.10;;;;;;5050773;28;20040;-64
2022/12/13 10:22:19;;;;;;;0.20;0.20;;;-3276.60;86.10;;;;;;5057632;28;20048;-65
2022/12/13 10:24:51;;;;;;;0.00;0.00;;;-3276.70;86.10;;;;;;5056780;28;20142;-64
2022/12/13 10:27:24;;;;;;;0.00;0.00;;;-3276.70;86.10;;;;;;5042499;28;20044;-65
2022/12/13 10:29:56;;;;;;;0.25;0.25;;;0.00;86.10;;;;;;5049691;28;20505;-65
2022/12/13 10:32:21;;;;;;;0.10;0.10;;;0.00;86.10;;;;;;5056965;28;20044;-65
2022/12/13 10:34:47;;;;;;;0.10;0.10;;;0.00;86.10;;;;;;5056973;28;20043;-65
2022/12/13 10:37:21;;;;;;;0.08;0.08;;;0.00;86.10;;;;;;5055839;28;20047;-65
2022/12/13 10:39:47;;;;;;;0.00;0.00;;;0.10;86.10;;;;;;5056727;28;20545;-65
2022/12/13 10:42:15;;;;;;;0.00;0.00;;;0.10;86.10;;;;;;5055616;28;20101;-65
2022/12/13 10:44:41;;;;;;;0.00;0.00;;;0.10;86.10;;;;;;5045250;28;20682;-65
2022/12/13 10:47:23;;;;;;;0.00;0.00;;;0.10;86.10;;;;;;5047488;28;20093;-66
2022/12/13 10:49:57;;;;;;;0.00;0.00;;;0.10;86.00;;;;;;5056510;28;20476;-65
2022/12/13 10:52:29;;;;;;;0.13;0.13;;;0.10;86.10;;;;;;5048374;28;20763;-65
2022/12/13 10:54:57;;;;;;;0.10;0.10;;;0.10;86.00;;;;;;5031287;28;20072;-65
2022/12/13 10:57:23;;;;;;;0.20;0.20;;;0.10;86.20;;;;;;5045730;28;20535;-65
2022/12/13 10:59:51;;;;;;;0.45;0.45;;;0.20;86.30;;;;;;5054561;28;20124;-65
2022/12/13 11:02:36;;;;;;;0.10;0.10;;;0.20;86.30;;;;;;5053490;28;20053;-65
2022/12/13 11:05:28;;;;;;;0.00;0.00;;;0.10;86.40;;;;;;5056431;28;20119;-64
2022/12/13 11:07:54;;;;;;;0.10;0.10;;;0.10;86.40;;;;;;5055978;28;20044;-65
2022/12/13 11:10:25;;;;;;;0.32;0.32;;;0.20;86.60;;;;;;5028764;28;20053;-66
2022/12/13 11:13:01;;;;;;;0.10;0.10;;;0.20;86.60;;;;;;5045579;28;20052;-65
2022/12/13 11:15:29;;;;;;;0.10;0.10;;;0.30;87.00;;;;;;5055365;28;20043;-66
2022/12/13 11:17:59;;;;;;;0.43;0.43;;;0.30;87.00;;;;;;5056405;28;20049;-65
2022/12/13 11:20:29;;;;;;;0.00;0.00;;;0.40;86.90;;;;;;5028030;28;20043;-66
2022/12/13 11:23:06;;;;;;;0.00;0.00;;;0.50;86.90;;;;;;5054966;28;20060;-65
2022/12/13 11:25:42;;;;;;;0.10;0.10;;;0.50;86.90;;;;;;5057447;28;20098;-66
2022/12/13 11:28:17;;;;;;;0.00;0.00;;;0.50;86.90;;;;;;5055186;28;20045;-67
2022/12/13 11:30:59;;;;;;;0.32;0.32;;;0.50;86.80;;;;;;5056009;28;20047;-66
2022/12/13 11:33:36;;;;;;;2.05;1.85;;;0.60;86.90;;;;;;5056964;28;20132;-64
2022/12/13 11:36:15;;;;;;;0.25;0.25;;;0.60;87.00;;;;;;5046279;28;20032;-65
2022/12/13 11:39:16;;;;;;;0.15;0.15;;;1.00;87.90;;;;;;5057310;28;20552;-64
2022/12/13 11:42:04;;;;;;;0.00;0.00;;;1.40;88.00;;;;;;5056948;28;20048;-65
2022/12/13 11:44:54;;;;;;;0.20;0.20;;;1.50;87.80;;;;;;5036422;28;20053;-65
2022/12/13 11:47:30;;;;;;;0.00;0.00;;;1.50;87.70;;;;;;5029355;28;20090;-65
2022/12/13 11:49:57;;;;;;;0.10;0.10;;;1.60;87.80;;;;;;5055057;28;20048;-65
2022/12/13 11:52:39;;;;;;;0.00;0.00;;;1.50;87.70;;;;;;5057430;28;20123;-65
2022/12/13 11:55:40;;;;;;;12.30;1.17;;;1.50;87.60;;;;;;5058722;28;20036;-65
2022/12/13 11:58:51;;;;;;;0.00;0.00;;;1.50;87.40;;;;;;4969665;28;20424;-65
2022/12/13 12:01:40;;;;;;;0.10;0.10;;;1.50;87.40;;;;;;4984977;28;20039;-65
2022/12/13 12:04:16;;;;;;;0.00;0.00;;;1.40;87.40;;;;;;4987486;28;20046;-65
2022/12/13 12:06:50;;;;;;;1.52;0.75;;;1.40;87.50;;;;;;5039673;28;20421;-65
2022/12/13 12:09:19;;;;;;;0.40;0.40;;;1.40;87.40;;;;;;5059120;28;20123;-66
2022/12/13 12:12:00;;;;;;;0.00;0.00;;;1.30;87.40;;;;;;5060988;28;20043;-65
2022/12/13 12:14:42;;;;;;;0.10;0.10;;;1.40;87.40;;;;;;5060780;28;20040;-66
2022/12/13 12:17:12;;;;;;;0.00;0.00;;;1.40;87.50;;;;;;5050758;28;20049;-66
2022/12/13 12:19:41;;;;;;;0.05;0.05;;;1.40;87.50;;;;;;5057518;28;20424;-64
2022/12/13 12:22:47;;;;;;;0.15;0.15;;;1.50;87.50;;;;;;5047264;28;20530;-63
2022/12/13 12:25:30;;;;;;;0.00;0.00;;;1.50;87.70;;;;;;5026501;28;20040;-64
2022/12/13 12:28:13;;;;;;;5.90;2.65;;;1.70;88.00;;;;;;5061217;28;20043;-64
2022/12/13 12:30:52;;;;;;;0.20;0.20;;;1.80;88.10;;;;;;5059935;28;20056;-63
2022/12/13 12:33:33;;;;;;;0.00;0.00;;;1.80;88.10;;;;;;5058361;28;20044;-63
2022/12/13 12:36:40;;;;;;;0.00;0.00;;;1.90;88.00;;;;;;5059698;28;20564;-64
2022/12/13 12:39:14;;;;;;;0.57;0.55;;;1.90;87.90;;;;;;5047193;28;20834;-64
2022/12/13 12:41:55;;;;;;;0.00;0.00;;;2.00;87.90;;;;;;5059624;28;20556;-63